sensor_id;sensor_type;location;lat;lon;timestamp;temperature;humidity
11836;DHT22;5977;51.972;7.640;2022-08-14T00:00:10;25.10;65.50
11836;DHT22;5977;51.972;7.640;2022-08-14T00:02:40;25.20;65.30
11836;DHT22;5977;51.972;7.640;2022-08-14T00:05:14;25.10;65.80
11836;DHT22;5977;51.972;7.640;2022-08-14T00:07:47;25.00;66.10
11836;DHT22;5977;51.972;7.640;2022-08-14T00:10:19;25.00;66.00
11836;DHT22;5977;51.972;7.640;2022-08-14T00:13:07;24.90;66.40
11836;DHT22;5977;51.972;7.640;2022-08-14T00:15:42;24.80;66.30
11836;DHT22;5977;51.972;7.640;2022-08-14T00:18:16;25.00;66.30
11836;DHT22;5977;51.972;7.640;2022-08-14T00:21:07;25.10;66.50
11836;DHT22;5977;51.972;7.640;2022-08-14T00:23:38;24.90;66.50
11836;DHT22;5977;51.972;7.640;2022-08-14T00:26:06;24.80;66.60
11836;DHT22;5977;51.972;7.640;2022-08-14T00:28:49;25.10;66.50
11836;DHT22;5977;51.972;7.640;2022-08-14T00:31:16;24.90;66.10
11836;DHT22;5977;51.972;7.640;2022-08-14T00:33:45;25.10;66.40
11836;DHT22;5977;51.972;7.640;2022-08-14T00:36:19;25.00;66.20
11836;DHT22;5977;51.972;7.640;2022-08-14T00:39:11;25.10;66.20
11836;DHT22;5977;51.972;7.640;2022-08-14T00:41:40;24.90;66.60
11836;DHT22;5977;51.972;7.640;2022-08-14T00:44:09;24.90;66.70
11836;DHT22;5977;51.972;7.640;2022-08-14T00:46:37;24.80;67.10
11836;DHT22;5977;51.972;7.640;2022-08-14T00:49:06;24.60;67.40
11836;DHT22;5977;51.972;7.640;2022-08-14T00:51:40;24.70;67.10
11836;DHT22;5977;51.972;7.640;2022-08-14T00:54:11;24.50;67.20
11836;DHT22;5977;51.972;7.640;2022-08-14T00:56:49;24.30;68.30
11836;DHT22;5977;51.972;7.640;2022-08-14T00:59:22;24.60;68.00
11836;DHT22;5977;51.972;7.640;2022-08-14T01:01:51;24.50;67.90
11836;DHT22;5977;51.972;7.640;2022-08-14T01:04:21;24.20;68.30
11836;DHT22;5977;51.972;7.640;2022-08-14T01:07:09;23.90;69.30
11836;DHT22;5977;51.972;7.640;2022-08-14T01:09:41;23.50;70.70
11836;DHT22;5977;51.972;7.640;2022-08-14T01:12:09;23.40;71.10
11836;DHT22;5977;51.972;7.640;2022-08-14T01:14:52;23.30;71.40
11836;DHT22;5977;51.972;7.640;2022-08-14T01:17:25;23.20;71.90
11836;DHT22;5977;51.972;7.640;2022-08-14T01:20:18;23.20;72.20
11836;DHT22;5977;51.972;7.640;2022-08-14T01:23:08;23.00;72.80
11836;DHT22;5977;51.972;7.640;2022-08-14T01:25:45;22.90;73.20
11836;DHT22;5977;51.972;7.640;2022-08-14T01:28:13;22.90;73.50
11836;DHT22;5977;51.972;7.640;2022-08-14T01:31:03;23.00;73.70
11836;DHT22;5977;51.972;7.640;2022-08-14T01:33:32;23.00;73.40
11836;DHT22;5977;51.972;7.640;2022-08-14T01:36:20;22.80;73.80
11836;DHT22;5977;51.972;7.640;2022-08-14T01:38:52;22.90;73.90
11836;DHT22;5977;51.972;7.640;2022-08-14T01:41:24;22.80;74.30
11836;DHT22;5977;51.972;7.640;2022-08-14T01:43:59;22.90;74.10
11836;DHT22;5977;51.972;7.640;2022-08-14T01:46:30;22.80;74.40
11836;DHT22;5977;51.972;7.640;2022-08-14T01:49:04;22.60;75.10
11836;DHT22;5977;51.972;7.640;2022-08-14T01:51:33;22.50;75.90
11836;DHT22;5977;51.972;7.640;2022-08-14T01:54:06;22.30;76.90
11836;DHT22;5977;51.972;7.640;2022-08-14T01:56:36;22.30;77.20
11836;DHT22;5977;51.972;7.640;2022-08-14T01:59:18;22.20;77.70
11836;DHT22;5977;51.972;7.640;2022-08-14T02:01:47;22.10;78.20
11836;DHT22;5977;51.972;7.640;2022-08-14T02:04:27;22.10;79.00
11836;DHT22;5977;51.972;7.640;2022-08-14T02:07:16;22.00;79.70
11836;DHT22;5977;51.972;7.640;2022-08-14T02:10:07;21.90;80.40
11836;DHT22;5977;51.972;7.640;2022-08-14T02:12:41;22.00;80.80
11836;DHT22;5977;51.972;7.640;2022-08-14T02:15:10;22.00;80.80
11836;DHT22;5977;51.972;7.640;2022-08-14T02:17:41;22.20;80.80
11836;DHT22;5977;51.972;7.640;2022-08-14T02:20:09;22.30;79.80
11836;DHT22;5977;51.972;7.640;2022-08-14T02:22:39;22.40;80.20
11836;DHT22;5977;51.972;7.640;2022-08-14T02:25:15;22.50;79.60
11836;DHT22;5977;51.972;7.640;2022-08-14T02:27:43;22.40;79.90
11836;DHT22;5977;51.972;7.640;2022-08-14T02:30:31;22.20;80.80
11836;DHT22;5977;51.972;7.640;2022-08-14T02:33:04;22.10;81.90
11836;DHT22;5977;51.972;7.640;2022-08-14T02:35:32;22.20;81.60
11836;DHT22;5977;51.972;7.640;2022-08-14T02:38:06;22.20;81.70
11836;DHT22;5977;51.972;7.640;2022-08-14T02:40:39;22.10;82.40
11836;DHT22;5977;51.972;7.640;2022-08-14T02:43:11;22.00;83.10
11836;DHT22;5977;51.972;7.640;2022-08-14T02:45:39;22.00;83.30
11836;DHT22;5977;51.972;7.640;2022-08-14T02:48:13;22.20;83.10
11836;DHT22;5977;51.972;7.640;2022-08-14T02:51:04;22.00;83.40
11836;DHT22;5977;51.972;7.640;2022-08-14T02:53:36;22.20;82.80
11836;DHT22;5977;51.972;7.640;2022-08-14T02:56:11;22.00;84.00
11836;DHT22;5977;51.972;7.640;2022-08-14T02:59:01;21.90;86.10
11836;DHT22;5977;51.972;7.640;2022-08-14T03:01:32;21.80;85.90
11836;DHT22;5977;51.972;7.640;2022-08-14T03:04:10;21.70;87.40
11836;DHT22;5977;51.972;7.640;2022-08-14T03:06:38;21.50;89.70
11836;DHT22;5977;51.972;7.640;2022-08-14T03:09:28;21.50;90.20
11836;DHT22;5977;51.972;7.640;2022-08-14T03:12:18;21.40;91.20
11836;DHT22;5977;51.972;7.640;2022-08-14T03:14:58;21.40;91.40
11836;DHT22;5977;51.972;7.640;2022-08-14T03:17:28;21.50;91.50
11836;DHT22;5977;51.972;7.640;2022-08-14T03:20:07;21.40;91.70
11836;DHT22;5977;51.972;7.640;2022-08-14T03:22:38;21.40;92.00
11836;DHT22;5977;51.972;7.640;2022-08-14T03:25:08;21.30;92.90
11836;DHT22;5977;51.972;7.640;2022-08-14T03:27:39;21.30;93.10
11836;DHT22;5977;51.972;7.640;2022-08-14T03:30:24;21.30;93.80
11836;DHT22;5977;51.972;7.640;2022-08-14T03:33:08;21.30;94.20
11836;DHT22;5977;51.972;7.640;2022-08-14T03:35:37;21.30;94.10
11836;DHT22;5977;51.972;7.640;2022-08-14T03:38:25;21.30;94.40
11836;DHT22;5977;51.972;7.640;2022-08-14T03:41:15;21.30;94.60
11836;DHT22;5977;51.972;7.640;2022-08-14T03:43:46;21.40;94.70
11836;DHT22;5977;51.972;7.640;2022-08-14T03:46:23;21.40;94.70
11836;DHT22;5977;51.972;7.640;2022-08-14T03:49:13;21.40;94.80
11836;DHT22;5977;51.972;7.640;2022-08-14T03:51:50;21.70;93.40
11836;DHT22;5977;51.972;7.640;2022-08-14T03:54:19;22.10;91.50
11836;DHT22;5977;51.972;7.640;2022-08-14T03:56:47;21.90;92.20
11836;DHT22;5977;51.972;7.640;2022-08-14T03:59:17;21.90;91.80
11836;DHT22;5977;51.972;7.640;2022-08-14T04:01:45;21.90;92.40
11836;DHT22;5977;51.972;7.640;2022-08-14T04:04:28;21.70;93.10
11836;DHT22;5977;51.972;7.640;2022-08-14T04:06:56;21.80;93.70
11836;DHT22;5977;51.972;7.640;2022-08-14T04:09:25;21.90;92.90
11836;DHT22;5977;51.972;7.640;2022-08-14T04:11:53;21.80;93.20
11836;DHT22;5977;51.972;7.640;2022-08-14T04:14:26;21.70;93.70
11836;DHT22;5977;51.972;7.640;2022-08-14T04:16:55;21.90;93.50
11836;DHT22;5977;51.972;7.640;2022-08-14T04:19:23;22.10;92.50
11836;DHT22;5977;51.972;7.640;2022-08-14T04:21:58;22.40;91.00
11836;DHT22;5977;51.972;7.640;2022-08-14T04:24:30;22.60;90.00
11836;DHT22;5977;51.972;7.640;2022-08-14T04:27:05;22.50;90.40
11836;DHT22;5977;51.972;7.640;2022-08-14T04:29:37;22.60;88.80
11836;DHT22;5977;51.972;7.640;2022-08-14T04:32:06;22.50;89.70
11836;DHT22;5977;51.972;7.640;2022-08-14T04:34:54;22.50;89.90
11836;DHT22;5977;51.972;7.640;2022-08-14T04:37:23;22.20;90.80
11836;DHT22;5977;51.972;7.640;2022-08-14T04:40:11;22.20;91.20
11836;DHT22;5977;51.972;7.640;2022-08-14T04:42:57;22.20;91.60
11836;DHT22;5977;51.972;7.640;2022-08-14T04:45:44;22.20;92.00
11836;DHT22;5977;51.972;7.640;2022-08-14T04:48:17;22.10;92.10
11836;DHT22;5977;51.972;7.640;2022-08-14T04:51:08;22.10;92.20
11836;DHT22;5977;51.972;7.640;2022-08-14T04:53:38;22.00;92.90
11836;DHT22;5977;51.972;7.640;2022-08-14T04:56:10;22.00;93.70
11836;DHT22;5977;51.972;7.640;2022-08-14T04:59:00;22.00;93.20
11836;DHT22;5977;51.972;7.640;2022-08-14T05:01:37;22.30;92.90
11836;DHT22;5977;51.972;7.640;2022-08-14T05:04:13;22.70;90.90
11836;DHT22;5977;51.972;7.640;2022-08-14T05:06:47;22.70;89.70
11836;DHT22;5977;51.972;7.640;2022-08-14T05:09:19;22.90;88.90
11836;DHT22;5977;51.972;7.640;2022-08-14T05:11:47;23.00;88.10
11836;DHT22;5977;51.972;7.640;2022-08-14T05:14:17;23.30;85.80
11836;DHT22;5977;51.972;7.640;2022-08-14T05:17:09;23.40;85.60
11836;DHT22;5977;51.972;7.640;2022-08-14T05:19:37;23.50;84.40
11836;DHT22;5977;51.972;7.640;2022-08-14T05:22:25;23.60;83.70
11836;DHT22;5977;51.972;7.640;2022-08-14T05:24:53;23.80;82.20
11836;DHT22;5977;51.972;7.640;2022-08-14T05:27:21;23.60;82.90
11836;DHT22;5977;51.972;7.640;2022-08-14T05:29:53;23.40;83.90
11836;DHT22;5977;51.972;7.640;2022-08-14T05:32:24;23.40;84.60
11836;DHT22;5977;51.972;7.640;2022-08-14T05:34:55;23.40;84.40
11836;DHT22;5977;51.972;7.640;2022-08-14T05:37:24;23.10;85.80
11836;DHT22;5977;51.972;7.640;2022-08-14T05:39:55;23.10;86.80
11836;DHT22;5977;51.972;7.640;2022-08-14T05:42:24;23.10;87.60
11836;DHT22;5977;51.972;7.640;2022-08-14T05:44:57;23.10;88.70
11836;DHT22;5977;51.972;7.640;2022-08-14T05:47:26;23.20;87.80
11836;DHT22;5977;51.972;7.640;2022-08-14T05:50:08;23.20;88.10
11836;DHT22;5977;51.972;7.640;2022-08-14T05:52:46;23.30;89.30
11836;DHT22;5977;51.972;7.640;2022-08-14T05:55:14;23.50;90.80
11836;DHT22;5977;51.972;7.640;2022-08-14T05:57:50;24.50;85.60
11836;DHT22;5977;51.972;7.640;2022-08-14T06:00:21;25.10;80.80
11836;DHT22;5977;51.972;7.640;2022-08-14T06:02:58;25.60;77.60
11836;DHT22;5977;51.972;7.640;2022-08-14T06:05:33;25.90;75.50
11836;DHT22;5977;51.972;7.640;2022-08-14T06:08:04;26.10;74.00
11836;DHT22;5977;51.972;7.640;2022-08-14T06:10:54;26.20;72.80
11836;DHT22;5977;51.972;7.640;2022-08-14T06:13:22;26.30;71.90
11836;DHT22;5977;51.972;7.640;2022-08-14T06:15:57;26.30;71.20
11836;DHT22;5977;51.972;7.640;2022-08-14T06:18:26;26.40;71.00
11836;DHT22;5977;51.972;7.640;2022-08-14T06:20:58;26.40;70.70
11836;DHT22;5977;51.972;7.640;2022-08-14T06:23:27;26.40;70.40
11836;DHT22;5977;51.972;7.640;2022-08-14T06:25:56;26.40;70.00
11836;DHT22;5977;51.972;7.640;2022-08-14T06:28:25;26.50;69.70
11836;DHT22;5977;51.972;7.640;2022-08-14T06:30:54;26.50;69.40
11836;DHT22;5977;51.972;7.640;2022-08-14T06:33:23;26.50;69.10
11836;DHT22;5977;51.972;7.640;2022-08-14T06:36:12;26.50;68.80
11836;DHT22;5977;51.972;7.640;2022-08-14T06:38:44;26.50;68.60
11836;DHT22;5977;51.972;7.640;2022-08-14T06:41:16;26.60;68.40
11836;DHT22;5977;51.972;7.640;2022-08-14T06:43:46;26.60;68.30
11836;DHT22;5977;51.972;7.640;2022-08-14T06:46:14;26.60;68.10
11836;DHT22;5977;51.972;7.640;2022-08-14T06:48:58;26.60;67.90
11836;DHT22;5977;51.972;7.640;2022-08-14T06:51:27;26.60;67.70
11836;DHT22;5977;51.972;7.640;2022-08-14T06:54:10;26.60;67.60
11836;DHT22;5977;51.972;7.640;2022-08-14T06:56:38;26.60;67.40
11836;DHT22;5977;51.972;7.640;2022-08-14T06:59:19;26.60;67.30
11836;DHT22;5977;51.972;7.640;2022-08-14T07:01:47;26.60;67.20
11836;DHT22;5977;51.972;7.640;2022-08-14T07:04:39;26.60;67.10
11836;DHT22;5977;51.972;7.640;2022-08-14T07:07:35;26.60;66.90
11836;DHT22;5977;51.972;7.640;2022-08-14T07:10:05;26.70;66.90
11836;DHT22;5977;51.972;7.640;2022-08-14T07:12:42;26.70;66.80
11836;DHT22;5977;51.972;7.640;2022-08-14T07:15:27;26.70;66.70
11836;DHT22;5977;51.972;7.640;2022-08-14T07:17:58;26.70;66.60
11836;DHT22;5977;51.972;7.640;2022-08-14T07:20:27;26.70;66.40
11836;DHT22;5977;51.972;7.640;2022-08-14T07:22:59;26.70;66.30
11836;DHT22;5977;51.972;7.640;2022-08-14T07:25:36;26.70;66.30
11836;DHT22;5977;51.972;7.640;2022-08-14T07:28:09;26.70;66.10
11836;DHT22;5977;51.972;7.640;2022-08-14T07:30:47;26.70;66.20
11836;DHT22;5977;51.972;7.640;2022-08-14T07:33:19;26.50;66.60
11836;DHT22;5977;51.972;7.640;2022-08-14T07:35:58;26.50;67.30
11836;DHT22;5977;51.972;7.640;2022-08-14T07:38:27;26.50;67.40
11836;DHT22;5977;51.972;7.640;2022-08-14T07:41:03;26.50;67.50
11836;DHT22;5977;51.972;7.640;2022-08-14T07:43:40;26.50;67.60
11836;DHT22;5977;51.972;7.640;2022-08-14T07:46:13;26.50;67.80
11836;DHT22;5977;51.972;7.640;2022-08-14T07:48:54;26.50;67.80
11836;DHT22;5977;51.972;7.640;2022-08-14T07:51:22;26.50;67.80
11836;DHT22;5977;51.972;7.640;2022-08-14T07:54:01;26.50;67.80
11836;DHT22;5977;51.972;7.640;2022-08-14T07:56:35;26.50;67.80
11836;DHT22;5977;51.972;7.640;2022-08-14T07:59:15;26.50;67.70
11836;DHT22;5977;51.972;7.640;2022-08-14T08:01:44;26.40;68.40
11836;DHT22;5977;51.972;7.640;2022-08-14T08:04:20;26.50;68.70
11836;DHT22;5977;51.972;7.640;2022-08-14T08:06:51;26.50;68.70
11836;DHT22;5977;51.972;7.640;2022-08-14T08:09:24;26.50;68.60
11836;DHT22;5977;51.972;7.640;2022-08-14T08:11:59;26.50;68.40
11836;DHT22;5977;51.972;7.640;2022-08-14T08:14:36;26.60;68.40
11836;DHT22;5977;51.972;7.640;2022-08-14T08:17:24;26.60;68.30
11836;DHT22;5977;51.972;7.640;2022-08-14T08:20:00;26.70;68.10
11836;DHT22;5977;51.972;7.640;2022-08-14T08:22:28;26.70;67.90
11836;DHT22;5977;51.972;7.640;2022-08-14T08:24:59;26.70;67.80
11836;DHT22;5977;51.972;7.640;2022-08-14T08:27:27;26.80;67.70
11836;DHT22;5977;51.972;7.640;2022-08-14T08:30:03;26.80;67.60
11836;DHT22;5977;51.972;7.640;2022-08-14T08:32:38;26.90;67.50
11836;DHT22;5977;51.972;7.640;2022-08-14T08:35:17;26.90;67.40
11836;DHT22;5977;51.972;7.640;2022-08-14T08:37:46;26.90;67.20
11836;DHT22;5977;51.972;7.640;2022-08-14T08:40:30;27.00;67.10
11836;DHT22;5977;51.972;7.640;2022-08-14T08:43:15;27.00;67.00
11836;DHT22;5977;51.972;7.640;2022-08-14T08:45:43;27.10;67.00
11836;DHT22;5977;51.972;7.640;2022-08-14T08:48:11;27.10;66.80
11836;DHT22;5977;51.972;7.640;2022-08-14T08:50:46;27.10;66.70
11836;DHT22;5977;51.972;7.640;2022-08-14T08:53:15;27.10;66.70
11836;DHT22;5977;51.972;7.640;2022-08-14T08:55:45;27.10;66.70
11836;DHT22;5977;51.972;7.640;2022-08-14T08:58:15;27.20;66.50
11836;DHT22;5977;51.972;7.640;2022-08-14T09:00:52;27.20;66.30
11836;DHT22;5977;51.972;7.640;2022-08-14T09:03:21;27.20;66.20
11836;DHT22;5977;51.972;7.640;2022-08-14T09:05:54;27.20;66.30
11836;DHT22;5977;51.972;7.640;2022-08-14T09:08:25;27.20;66.20
11836;DHT22;5977;51.972;7.640;2022-08-14T09:11:02;27.30;66.10
11836;DHT22;5977;51.972;7.640;2022-08-14T09:13:48;27.30;66.10
11836;DHT22;5977;51.972;7.640;2022-08-14T09:16:19;27.30;66.00
11836;DHT22;5977;51.972;7.640;2022-08-14T09:18:49;27.30;65.80
11836;DHT22;5977;51.972;7.640;2022-08-14T09:21:19;27.40;65.70
11836;DHT22;5977;51.972;7.640;2022-08-14T09:23:51;27.40;66.40
11836;DHT22;5977;51.972;7.640;2022-08-14T09:26:42;27.40;65.50
11836;DHT22;5977;51.972;7.640;2022-08-14T09:29:16;27.40;65.50
11836;DHT22;5977;51.972;7.640;2022-08-14T09:31:52;27.40;65.60
11836;DHT22;5977;51.972;7.640;2022-08-14T09:34:37;27.40;65.50
11836;DHT22;5977;51.972;7.640;2022-08-14T09:37:33;27.40;65.70
11836;DHT22;5977;51.972;7.640;2022-08-14T09:40:13;27.40;66.10
11836;DHT22;5977;51.972;7.640;2022-08-14T09:42:56;27.30;66.20
11836;DHT22;5977;51.972;7.640;2022-08-14T09:45:30;27.30;66.20
11836;DHT22;5977;51.972;7.640;2022-08-14T09:48:19;27.20;66.20
11836;DHT22;5977;51.972;7.640;2022-08-14T09:50:57;27.20;66.30
11836;DHT22;5977;51.972;7.640;2022-08-14T09:53:38;27.20;66.40
11836;DHT22;5977;51.972;7.640;2022-08-14T09:56:27;27.20;66.30
11836;DHT22;5977;51.972;7.640;2022-08-14T09:59:09;27.20;66.30
11836;DHT22;5977;51.972;7.640;2022-08-14T10:01:42;27.20;66.20
11836;DHT22;5977;51.972;7.640;2022-08-14T10:04:20;27.30;66.20
11836;DHT22;5977;51.972;7.640;2022-08-14T10:07:03;27.30;66.10
11836;DHT22;5977;51.972;7.640;2022-08-14T10:09:31;27.30;66.00
11836;DHT22;5977;51.972;7.640;2022-08-14T10:12:01;27.30;65.80
11836;DHT22;5977;51.972;7.640;2022-08-14T10:14:45;27.30;65.80
11836;DHT22;5977;51.972;7.640;2022-08-14T10:17:22;27.30;65.70
11836;DHT22;5977;51.972;7.640;2022-08-14T10:19:53;27.30;65.60
11836;DHT22;5977;51.972;7.640;2022-08-14T10:22:25;27.30;65.50
11836;DHT22;5977;51.972;7.640;2022-08-14T10:25:16;27.30;65.70
11836;DHT22;5977;51.972;7.640;2022-08-14T10:27:56;27.30;65.30
11836;DHT22;5977;51.972;7.640;2022-08-14T10:30:32;27.30;65.60
11836;DHT22;5977;51.972;7.640;2022-08-14T10:33:04;27.30;65.50
11836;DHT22;5977;51.972;7.640;2022-08-14T10:35:40;27.30;65.40
11836;DHT22;5977;51.972;7.640;2022-08-14T10:38:13;27.30;65.40
11836;DHT22;5977;51.972;7.640;2022-08-14T10:40:52;27.30;65.40
11836;DHT22;5977;51.972;7.640;2022-08-14T10:43:25;27.40;65.30
11836;DHT22;5977;51.972;7.640;2022-08-14T10:45:59;27.40;65.30
11836;DHT22;5977;51.972;7.640;2022-08-14T10:48:56;27.40;65.40
11836;DHT22;5977;51.972;7.640;2022-08-14T10:51:28;27.40;65.70
11836;DHT22;5977;51.972;7.640;2022-08-14T10:54:07;27.30;65.90
11836;DHT22;5977;51.972;7.640;2022-08-14T10:56:55;27.40;65.90
11836;DHT22;5977;51.972;7.640;2022-08-14T10:59:23;27.40;65.90
11836;DHT22;5977;51.972;7.640;2022-08-14T11:01:58;27.40;65.90
11836;DHT22;5977;51.972;7.640;2022-08-14T11:04:26;27.40;65.80
11836;DHT22;5977;51.972;7.640;2022-08-14T11:06:57;27.40;65.80
11836;DHT22;5977;51.972;7.640;2022-08-14T11:09:25;27.40;65.90
11836;DHT22;5977;51.972;7.640;2022-08-14T11:11:58;27.40;66.00
11836;DHT22;5977;51.972;7.640;2022-08-14T11:14:52;27.30;65.90
11836;DHT22;5977;51.972;7.640;2022-08-14T11:17:26;27.30;66.10
11836;DHT22;5977;51.972;7.640;2022-08-14T11:19:59;27.30;66.00
11836;DHT22;5977;51.972;7.640;2022-08-14T11:22:29;27.30;65.90
11836;DHT22;5977;51.972;7.640;2022-08-14T11:25:19;27.40;66.00
11836;DHT22;5977;51.972;7.640;2022-08-14T11:27:50;27.30;65.90
11836;DHT22;5977;51.972;7.640;2022-08-14T11:30:23;27.30;65.90
11836;DHT22;5977;51.972;7.640;2022-08-14T11:33:12;27.30;66.00
11836;DHT22;5977;51.972;7.640;2022-08-14T11:35:46;27.30;66.00
11836;DHT22;5977;51.972;7.640;2022-08-14T11:38:15;27.30;66.20
11836;DHT22;5977;51.972;7.640;2022-08-14T11:40:44;27.30;66.00
11836;DHT22;5977;51.972;7.640;2022-08-14T11:43:14;27.30;66.00
11836;DHT22;5977;51.972;7.640;2022-08-14T11:45:48;27.20;66.00
11836;DHT22;5977;51.972;7.640;2022-08-14T11:48:20;27.20;66.20
11836;DHT22;5977;51.972;7.640;2022-08-14T11:51:12;27.30;66.10
11836;DHT22;5977;51.972;7.640;2022-08-14T11:53:51;27.20;65.90
11836;DHT22;5977;51.972;7.640;2022-08-14T11:56:19;27.30;65.90
11836;DHT22;5977;51.972;7.640;2022-08-14T11:58:53;27.30;65.90
11836;DHT22;5977;51.972;7.640;2022-08-14T12:01:26;27.20;66.00
11836;DHT22;5977;51.972;7.640;2022-08-14T12:04:09;27.20;65.90
11836;DHT22;5977;51.972;7.640;2022-08-14T12:06:57;27.20;66.00
11836;DHT22;5977;51.972;7.640;2022-08-14T12:09:29;27.20;66.00
11836;DHT22;5977;51.972;7.640;2022-08-14T12:11:57;27.20;66.10
11836;DHT22;5977;51.972;7.640;2022-08-14T12:14:27;27.20;66.20
11836;DHT22;5977;51.972;7.640;2022-08-14T12:17:06;27.20;66.20
11836;DHT22;5977;51.972;7.640;2022-08-14T12:19:45;27.10;66.20
11836;DHT22;5977;51.972;7.640;2022-08-14T12:22:18;27.20;66.30
11836;DHT22;5977;51.972;7.640;2022-08-14T12:24:56;27.20;66.30
11836;DHT22;5977;51.972;7.640;2022-08-14T12:27:38;27.20;66.30
11836;DHT22;5977;51.972;7.640;2022-08-14T12:30:31;27.20;66.20
11836;DHT22;5977;51.972;7.640;2022-08-14T12:33:19;27.20;67.00
11836;DHT22;5977;51.972;7.640;2022-08-14T12:35:53;27.20;66.00
11836;DHT22;5977;51.972;7.640;2022-08-14T12:38:31;27.20;66.10
11836;DHT22;5977;51.972;7.640;2022-08-14T12:41:02;27.20;66.20
11836;DHT22;5977;51.972;7.640;2022-08-14T12:43:43;27.20;66.20
11836;DHT22;5977;51.972;7.640;2022-08-14T12:46:20;27.20;66.10
11836;DHT22;5977;51.972;7.640;2022-08-14T12:48:55;27.20;66.00
11836;DHT22;5977;51.972;7.640;2022-08-14T12:51:26;27.20;66.00
11836;DHT22;5977;51.972;7.640;2022-08-14T12:53:57;27.30;65.90
11836;DHT22;5977;51.972;7.640;2022-08-14T12:56:26;27.30;65.70
11836;DHT22;5977;51.972;7.640;2022-08-14T12:59:00;27.30;65.70
11836;DHT22;5977;51.972;7.640;2022-08-14T13:01:31;27.30;65.70
11836;DHT22;5977;51.972;7.640;2022-08-14T13:04:20;27.30;65.70
11836;DHT22;5977;51.972;7.640;2022-08-14T13:06:50;27.30;65.80
11836;DHT22;5977;51.972;7.640;2022-08-14T13:09:20;27.20;65.80
11836;DHT22;5977;51.972;7.640;2022-08-14T13:12:04;27.30;65.80
11836;DHT22;5977;51.972;7.640;2022-08-14T13:14:56;27.20;65.80
11836;DHT22;5977;51.972;7.640;2022-08-14T13:17:25;27.20;65.90
11836;DHT22;5977;51.972;7.640;2022-08-14T13:19:55;27.20;66.10
11836;DHT22;5977;51.972;7.640;2022-08-14T13:22:25;27.20;66.00
11836;DHT22;5977;51.972;7.640;2022-08-14T13:25:03;27.10;66.00
11836;DHT22;5977;51.972;7.640;2022-08-14T13:27:32;27.10;66.10
11836;DHT22;5977;51.972;7.640;2022-08-14T13:30:06;27.20;65.90
11836;DHT22;5977;51.972;7.640;2022-08-14T13:32:37;27.20;65.80
11836;DHT22;5977;51.972;7.640;2022-08-14T13:35:07;27.20;65.90
11836;DHT22;5977;51.972;7.640;2022-08-14T13:37:45;27.20;66.60
11836;DHT22;5977;51.972;7.640;2022-08-14T13:40:19;27.20;65.90
11836;DHT22;5977;51.972;7.640;2022-08-14T13:42:53;27.20;65.90
11836;DHT22;5977;51.972;7.640;2022-08-14T13:45:24;27.10;65.90
11836;DHT22;5977;51.972;7.640;2022-08-14T13:48:12;27.20;65.90
11836;DHT22;5977;51.972;7.640;2022-08-14T13:50:59;27.20;65.80
11836;DHT22;5977;51.972;7.640;2022-08-14T13:53:31;27.20;65.70
11836;DHT22;5977;51.972;7.640;2022-08-14T13:56:07;27.20;66.50
11836;DHT22;5977;51.972;7.640;2022-08-14T13:58:41;27.20;65.80
11836;DHT22;5977;51.972;7.640;2022-08-14T14:01:15;27.20;65.80
11836;DHT22;5977;51.972;7.640;2022-08-14T14:03:45;27.20;65.80
11836;DHT22;5977;51.972;7.640;2022-08-14T14:06:17;27.20;65.70
11836;DHT22;5977;51.972;7.640;2022-08-14T14:08:48;27.20;65.80
11836;DHT22;5977;51.972;7.640;2022-08-14T14:11:18;27.20;65.70
11836;DHT22;5977;51.972;7.640;2022-08-14T14:13:50;27.20;65.90
11836;DHT22;5977;51.972;7.640;2022-08-14T14:16:18;27.20;65.80
11836;DHT22;5977;51.972;7.640;2022-08-14T14:18:56;27.20;66.60
11836;DHT22;5977;51.972;7.640;2022-08-14T14:21:35;27.20;66.00
11836;DHT22;5977;51.972;7.640;2022-08-14T14:24:08;27.10;65.90
11836;DHT22;5977;51.972;7.640;2022-08-14T14:26:44;27.10;65.90
11836;DHT22;5977;51.972;7.640;2022-08-14T14:29:13;27.20;66.00
11836;DHT22;5977;51.972;7.640;2022-08-14T14:31:42;27.10;65.90
11836;DHT22;5977;51.972;7.640;2022-08-14T14:34:15;27.10;65.90
11836;DHT22;5977;51.972;7.640;2022-08-14T14:36:56;27.10;65.90
11836;DHT22;5977;51.972;7.640;2022-08-14T14:39:31;27.20;66.00
11836;DHT22;5977;51.972;7.640;2022-08-14T14:42:19;27.20;65.90
11836;DHT22;5977;51.972;7.640;2022-08-14T14:45:02;27.20;65.80
11836;DHT22;5977;51.972;7.640;2022-08-14T14:47:31;27.20;65.80
11836;DHT22;5977;51.972;7.640;2022-08-14T14:50:02;27.20;65.70
11836;DHT22;5977;51.972;7.640;2022-08-14T14:52:32;27.20;65.80
11836;DHT22;5977;51.972;7.640;2022-08-14T14:55:08;27.20;65.80
11836;DHT22;5977;51.972;7.640;2022-08-14T14:57:38;27.20;65.80
11836;DHT22;5977;51.972;7.640;2022-08-14T15:00:12;27.20;65.80
11836;DHT22;5977;51.972;7.640;2022-08-14T15:02:46;27.20;65.80
11836;DHT22;5977;51.972;7.640;2022-08-14T15:05:18;27.20;65.90
11836;DHT22;5977;51.972;7.640;2022-08-14T15:07:48;27.20;65.80
11836;DHT22;5977;51.972;7.640;2022-08-14T15:10:20;27.20;65.70
11836;DHT22;5977;51.972;7.640;2022-08-14T15:12:58;27.20;65.60
11836;DHT22;5977;51.972;7.640;2022-08-14T15:15:31;27.20;65.50
11836;DHT22;5977;51.972;7.640;2022-08-14T15:18:04;27.30;65.50
11836;DHT22;5977;51.972;7.640;2022-08-14T15:20:52;27.20;65.50
11836;DHT22;5977;51.972;7.640;2022-08-14T15:23:22;27.30;65.50
11836;DHT22;5977;51.972;7.640;2022-08-14T15:25:51;27.20;65.30
11836;DHT22;5977;51.972;7.640;2022-08-14T15:28:19;27.20;65.30
11836;DHT22;5977;51.972;7.640;2022-08-14T15:30:49;27.20;65.30
11836;DHT22;5977;51.972;7.640;2022-08-14T15:33:25;27.20;65.30
11836;DHT22;5977;51.972;7.640;2022-08-14T15:36:31;27.20;65.60
11836;DHT22;5977;51.972;7.640;2022-08-14T15:39:01;27.20;65.30
11836;DHT22;5977;51.972;7.640;2022-08-14T15:41:31;27.20;65.20
11836;DHT22;5977;51.972;7.640;2022-08-14T15:44:07;27.30;65.10
11836;DHT22;5977;51.972;7.640;2022-08-14T15:46:52;27.30;65.00
11836;DHT22;5977;51.972;7.640;2022-08-14T15:49:21;27.30;64.90
11836;DHT22;5977;51.972;7.640;2022-08-14T15:51:49;27.30;65.00
11836;DHT22;5977;51.972;7.640;2022-08-14T15:54:18;27.40;65.00
11836;DHT22;5977;51.972;7.640;2022-08-14T15:56:57;27.40;65.00
11836;DHT22;5977;51.972;7.640;2022-08-14T15:59:26;27.30;64.90
11836;DHT22;5977;51.972;7.640;2022-08-14T16:02:15;27.30;65.00
11836;DHT22;5977;51.972;7.640;2022-08-14T16:04:44;27.30;65.10
11836;DHT22;5977;51.972;7.640;2022-08-14T16:07:17;27.30;65.10
11836;DHT22;5977;51.972;7.640;2022-08-14T16:09:52;27.30;65.10
11836;DHT22;5977;51.972;7.640;2022-08-14T16:12:42;27.30;65.00
11836;DHT22;5977;51.972;7.640;2022-08-14T16:15:20;27.30;65.00
11836;DHT22;5977;51.972;7.640;2022-08-14T16:17:50;27.30;64.90
11836;DHT22;5977;51.972;7.640;2022-08-14T16:20:19;27.30;64.90
11836;DHT22;5977;51.972;7.640;2022-08-14T16:23:08;27.30;64.90
11836;DHT22;5977;51.972;7.640;2022-08-14T16:25:41;27.30;64.90
11836;DHT22;5977;51.972;7.640;2022-08-14T16:28:11;27.30;64.80
11836;DHT22;5977;51.972;7.640;2022-08-14T16:30:53;27.30;64.80
11836;DHT22;5977;51.972;7.640;2022-08-14T16:33:22;27.30;64.90
11836;DHT22;5977;51.972;7.640;2022-08-14T16:36:12;27.30;64.90